createdAt,value
2018-02-07T00:00:29.514Z,30.60
2018-02-07T00:01:32.724Z,29.85
2018-02-07T00:02:35.975Z,28.55
2018-02-07T00:03:39.201Z,28.27
2018-02-07T00:04:42.431Z,30.75
2018-02-07T00:05:45.680Z,28.15
2018-02-07T00:06:48.937Z,28.42
2018-02-07T00:07:52.941Z,29.02
2018-02-07T00:08:56.551Z,26.42
2018-02-07T00:09:59.812Z,28.27
2018-02-07T00:11:03.006Z,30.33
2018-02-07T00:12:06.239Z,28.33
2018-02-07T00:13:09.436Z,27.37
2018-02-07T00:14:13.470Z,30.50
2018-02-07T00:15:16.711Z,29.52
2018-02-07T00:16:20.041Z,27.08
2018-02-07T00:17:23.264Z,28.55
2018-02-07T00:18:26.513Z,28.45
2018-02-07T00:19:29.753Z,27.10
2018-02-07T00:20:32.976Z,27.42
2018-02-07T00:21:36.204Z,29.60
2018-02-07T00:22:39.419Z,27.73
2018-02-07T00:23:43.431Z,27.90
2018-02-07T00:24:46.672Z,28.67
2018-02-07T00:25:49.947Z,27.27
2018-02-07T00:26:53.136Z,28.87
2018-02-07T00:27:56.385Z,28.90
2018-02-07T00:28:59.612Z,27.25
2018-02-07T00:30:02.833Z,27.77
2018-02-07T00:31:06.107Z,28.65
2018-02-07T00:32:09.384Z,28.23
2018-02-07T00:33:12.687Z,28.67
2018-02-07T00:34:15.893Z,27.15
2018-02-07T00:35:19.192Z,27.60
2018-02-07T00:36:22.378Z,27.00
2018-02-07T00:37:25.618Z,28.23
2018-02-07T00:38:28.853Z,29.40
2018-02-07T00:39:32.094Z,27.55
2018-02-07T00:40:35.318Z,29.77
2018-02-07T00:41:38.545Z,28.12
2018-02-07T00:42:41.783Z,29.23
2018-02-07T00:43:44.992Z,27.90
2018-02-07T00:44:48.990Z,26.37
2018-02-07T00:45:52.961Z,29.15
2018-02-07T00:46:56.188Z,27.08
2018-02-07T00:47:59.424Z,29.35
2018-02-07T00:49:02.647Z,28.90
2018-02-07T00:50:06.631Z,28.70
2018-02-07T00:51:10.625Z,27.92
2018-02-07T00:52:13.853Z,29.35
2018-02-07T00:53:17.083Z,28.33
2018-02-07T00:54:20.309Z,27.87
2018-02-07T00:55:23.540Z,28.70
2018-02-07T00:56:26.755Z,28.83
2018-02-07T00:57:30.747Z,28.23
2018-02-07T00:58:34.779Z,29.12
2018-02-07T00:59:38.010Z,29.85
2018-02-07T01:00:41.242Z,29.95
2018-02-07T01:01:44.469Z,28.65
2018-02-07T01:02:47.954Z,30.08
2018-02-07T01:03:51.160Z,28.65
2018-02-07T01:04:54.460Z,29.05
2018-02-07T01:05:57.753Z,29.77
2018-02-07T01:07:00.977Z,28.40
2018-02-07T01:08:04.218Z,28.48
2018-02-07T01:09:08.219Z,27.70
2018-02-07T01:10:11.449Z,30.20
2018-02-07T01:11:14.670Z,29.67
2018-02-07T01:12:18.677Z,27.30
2018-02-07T01:13:22.677Z,27.15
2018-02-07T01:14:26.673Z,28.95
2018-02-07T01:15:30.686Z,29.23
2018-02-07T01:16:34.740Z,31.80
2018-02-07T01:17:37.941Z,28.98
2018-02-07T01:18:41.228Z,28.60
2018-02-07T01:19:44.400Z,29.80
2018-02-07T01:20:47.733Z,29.10
2018-02-07T01:21:50.955Z,29.80
2018-02-07T01:22:54.241Z,30.15
2018-02-07T01:23:57.444Z,28.95
2018-02-07T01:25:00.752Z,27.73
2018-02-07T01:26:04.041Z,29.42
2018-02-07T01:27:08.039Z,29.52
2018-02-07T01:28:11.274Z,29.90
2018-02-07T01:29:14.493Z,29.25
2018-02-07T01:30:18.483Z,29.20
2018-02-07T01:31:22.532Z,31.80
2018-02-07T01:32:25.744Z,30.00
2018-02-07T01:33:28.959Z,29.48
2018-02-07T01:34:32.951Z,31.80
2018-02-07T01:35:36.955Z,31.15
2018-02-07T01:36:40.943Z,32.72
2018-02-07T01:37:44.156Z,30.95
2018-02-07T01:38:47.399Z,30.37
2018-02-07T01:39:50.616Z,30.70
2018-02-07T01:40:53.874Z,30.75
2018-02-07T01:41:57.453Z,30.33
2018-02-07T01:43:00.641Z,29.12
2018-02-07T01:44:03.864Z,30.60
2018-02-07T01:45:07.116Z,31.33
2018-02-07T01:46:10.333Z,31.95
2018-02-07T01:47:13.582Z,30.77
2018-02-07T01:48:17.576Z,29.33
2018-02-07T01:49:20.893Z,32.10
2018-02-07T01:50:24.179Z,29.50
2018-02-07T01:51:28.152Z,31.70
2018-02-07T01:52:31.364Z,29.45
2018-02-07T01:53:34.601Z,31.75
2018-02-07T01:54:37.825Z,31.42
2018-02-07T01:55:41.040Z,31.12
2018-02-07T01:56:44.294Z,28.42
2018-02-07T01:57:47.509Z,29.73
2018-02-07T01:58:50.749Z,30.67
2018-02-07T01:59:53.976Z,30.70
2018-02-07T02:00:57.191Z,27.33
2018-02-07T02:02:00.421Z,29.85
2018-02-07T02:03:03.690Z,29.98
2018-02-07T02:04:06.910Z,29.58
2018-02-07T02:05:10.145Z,28.80
2018-02-07T02:06:13.384Z,30.52
2018-02-07T02:07:16.617Z,30.80
2018-02-07T02:08:20.591Z,31.17
2018-02-07T02:09:23.853Z,29.55
2018-02-07T02:10:27.082Z,29.90
2018-02-07T02:11:31.066Z,28.62
2018-02-07T02:12:35.082Z,31.40
2018-02-07T02:13:38.305Z,29.60
2018-02-07T02:14:41.543Z,30.88
2018-02-07T02:15:45.530Z,28.40
2018-02-07T02:16:49.545Z,29.73
2018-02-07T02:17:52.773Z,30.23
2018-02-07T02:18:55.995Z,29.90
2018-02-07T02:19:59.984Z,30.40
2018-02-07T02:21:03.215Z,30.50
2018-02-07T02:22:06.439Z,30.92
2018-02-07T02:23:09.671Z,31.65
2018-02-07T02:24:12.892Z,29.45
2018-02-07T02:25:16.119Z,29.02
2018-02-07T02:26:20.119Z,28.75
2018-02-07T02:27:24.105Z,29.60
2018-02-07T02:28:27.810Z,31.67
2018-02-07T02:29:31.213Z,30.60
2018-02-07T02:30:35.185Z,30.40
2018-02-07T02:31:38.498Z,28.52
2018-02-07T02:32:41.740Z,28.20
2018-02-07T02:33:44.968Z,29.58
2018-02-07T02:34:48.202Z,30.55
2018-02-07T02:36:03.300Z,29.08
2018-02-07T02:37:07.302Z,30.92
2018-02-07T02:38:11.288Z,29.42
2018-02-07T02:39:15.293Z,30.33
2018-02-07T02:40:19.285Z,29.40
2018-02-07T02:41:22.520Z,29.37
2018-02-07T02:42:25.735Z,32.28
2018-02-07T02:43:28.974Z,30.58
2018-02-07T02:44:32.208Z,31.50
2018-02-07T02:45:35.443Z,31.55
2018-02-07T02:46:38.677Z,30.25
2018-02-07T02:47:41.908Z,31.05
2018-02-07T02:48:45.136Z,31.48
2018-02-07T02:49:48.375Z,29.92
2018-02-07T02:50:51.593Z,29.60
2018-02-07T02:51:54.928Z,30.25
2018-02-07T02:52:58.151Z,32.80
2018-02-07T02:54:01.402Z,30.12
2018-02-07T02:55:04.650Z,30.80
2018-02-07T02:56:07.956Z,30.98
2018-02-07T02:57:11.199Z,31.60
2018-02-07T02:58:14.441Z,30.75
2018-02-07T02:59:17.674Z,33.75
2018-02-07T03:00:20.948Z,30.83
2018-02-07T03:01:24.181Z,31.75
2018-02-07T03:02:27.403Z,30.58
2018-02-07T03:03:30.652Z,32.40
2018-02-07T03:04:33.876Z,32.25
2018-02-07T03:05:37.867Z,32.45
2018-02-07T03:06:41.098Z,33.78
2018-02-07T03:07:44.324Z,31.75
2018-02-07T03:08:47.566Z,31.50
2018-02-07T03:09:50.805Z,31.87
2018-02-07T03:10:54.810Z,31.30
2018-02-07T03:11:58.803Z,32.88
2018-02-07T03:13:02.808Z,30.62
2018-02-07T03:14:06.886Z,29.70
2018-02-07T03:15:10.092Z,34.53
2018-02-07T03:16:14.089Z,32.33
2018-02-07T03:17:17.328Z,30.88
2018-02-07T03:18:20.551Z,32.58
2018-02-07T03:19:23.798Z,31.62
2018-02-07T03:20:27.052Z,33.83
2018-02-07T03:21:30.293Z,35.08
2018-02-07T03:22:33.604Z,32.65
2018-02-07T03:23:37.592Z,33.30
2018-02-07T03:24:41.619Z,34.55
2018-02-07T03:25:44.810Z,34.20
2018-02-07T03:26:48.025Z,33.20
2018-02-07T03:27:51.296Z,35.63
2018-02-07T03:28:54.551Z,37.28
2018-02-07T03:29:57.775Z,34.72
2018-02-07T03:31:01.009Z,36.22
2018-02-07T03:32:05.000Z,36.85
2018-02-07T03:33:08.989Z,35.30
2018-02-07T03:34:12.217Z,36.75
2018-02-07T03:35:15.432Z,36.90
2018-02-07T03:36:18.668Z,37.13
2018-02-07T03:37:21.891Z,38.53
2018-02-07T03:38:25.110Z,36.25
2018-02-07T03:39:29.336Z,38.47
2018-02-07T03:40:32.562Z,35.92
2018-02-07T03:41:35.801Z,37.33
2018-02-07T03:42:39.820Z,36.85
2018-02-07T03:43:43.052Z,36.67
2018-02-07T03:44:46.272Z,37.13
2018-02-07T03:45:49.507Z,39.63
2018-02-07T03:46:52.750Z,34.17
2018-02-07T03:47:56.004Z,35.03
2018-02-07T03:48:59.999Z,35.40
2018-02-07T03:50:03.999Z,35.45
2018-02-07T03:51:08.015Z,38.53
2018-02-07T03:52:11.276Z,37.80
2018-02-07T03:53:15.306Z,36.83
2018-02-07T03:54:18.540Z,36.30
2018-02-07T03:55:21.774Z,36.00
2018-02-07T03:56:24.991Z,37.03
2018-02-07T03:57:28.213Z,39.38
2018-02-07T03:58:32.205Z,37.20
2018-02-07T03:59:35.515Z,40.17
2018-02-07T04:00:39.508Z,38.28
2018-02-07T04:01:43.482Z,37.55
2018-02-07T04:02:46.717Z,39.83
2018-02-07T04:03:49.932Z,36.67
2018-02-07T04:04:53.168Z,38.60
2018-02-07T04:05:56.407Z,39.00
2018-02-07T04:06:59.646Z,36.75
2018-02-07T04:08:02.906Z,37.65
2018-02-07T04:09:06.898Z,37.85
2018-02-07T04:10:10.918Z,37.92
2018-02-07T04:11:14.141Z,39.95
2018-02-07T04:12:17.434Z,38.67
2018-02-07T04:13:20.635Z,41.42
2018-02-07T04:14:23.874Z,38.88
2018-02-07T04:15:27.096Z,38.38
2018-02-07T04:16:31.092Z,38.50
2018-02-07T04:17:34.326Z,38.78
2018-02-07T04:18:37.553Z,38.55
2018-02-07T04:19:40.818Z,40.45
2018-02-07T04:20:44.016Z,39.50
2018-02-07T04:21:47.253Z,39.95
2018-02-07T04:22:50.470Z,39.20
2018-02-07T04:23:53.702Z,40.42
2018-02-07T04:24:56.929Z,39.92
2018-02-07T04:26:00.177Z,39.15
2018-02-07T04:27:03.401Z,37.67
2018-02-07T04:28:06.632Z,41.70
2018-02-07T04:29:10.635Z,38.05
2018-02-07T04:30:13.887Z,39.03
2018-02-07T04:31:17.112Z,39.30
2018-02-07T04:32:20.390Z,40.05
2018-02-07T04:33:23.673Z,41.15
2018-02-07T04:34:26.905Z,40.20
2018-02-07T04:35:30.124Z,40.38
2018-02-07T04:36:34.135Z,41.33
2018-02-07T04:37:37.444Z,38.75
2018-02-07T04:38:40.716Z,42.50
2018-02-07T04:39:43.922Z,39.55
2018-02-07T04:40:47.167Z,38.90
2018-02-07T04:41:50.389Z,37.58
2018-02-07T04:42:53.620Z,40.58
2018-02-07T04:43:56.842Z,41.63
2018-02-07T04:45:00.084Z,41.13
2018-02-07T04:46:03.300Z,42.62
2018-02-07T04:47:06.523Z,43.45
2018-02-07T04:48:09.745Z,40.63
2018-02-07T04:49:12.973Z,41.97
2018-02-07T04:50:16.198Z,39.30
2018-02-07T04:51:20.204Z,40.00
2018-02-07T04:52:24.207Z,40.22
2018-02-07T04:53:27.428Z,41.03
2018-02-07T04:54:30.670Z,41.37
2018-02-07T04:55:34.672Z,39.88
2018-02-07T04:56:38.665Z,45.67
2018-02-07T04:57:42.677Z,42.47
2018-02-07T04:58:46.669Z,43.05
2018-02-07T04:59:49.888Z,40.08
2018-02-07T05:00:53.123Z,42.15
2018-02-07T05:01:56.364Z,41.53
2018-02-07T05:02:59.600Z,41.58
2018-02-07T05:04:03.628Z,41.40
2018-02-07T05:05:06.887Z,39.55
2018-02-07T05:06:10.884Z,40.53
2018-02-07T05:07:14.893Z,41.47
2018-02-07T05:08:18.898Z,40.67
2018-02-07T05:09:22.900Z,41.55
2018-02-07T05:10:26.123Z,40.97
2018-02-07T05:11:29.362Z,42.78
2018-02-07T05:12:33.370Z,41.85
2018-02-07T05:13:36.593Z,42.42
2018-02-07T05:14:39.827Z,40.58
2018-02-07T05:15:43.798Z,41.97
2018-02-07T05:16:47.126Z,41.90
2018-02-07T05:17:50.361Z,41.60
2018-02-07T05:18:53.597Z,41.42
2018-02-07T05:19:56.820Z,44.13
2018-02-07T05:21:00.050Z,41.63
2018-02-07T05:22:04.059Z,43.97
2018-02-07T05:23:07.295Z,44.05
2018-02-07T05:24:10.523Z,46.28
2018-02-07T05:25:13.766Z,44.28
2018-02-07T05:26:16.985Z,41.37
2018-02-07T05:27:20.228Z,44.35
2018-02-07T05:28:23.452Z,42.13
2018-02-07T05:29:26.671Z,42.38
2018-02-07T05:30:29.926Z,42.62
2018-02-07T05:31:33.152Z,44.08
2018-02-07T05:32:36.382Z,40.65
2018-02-07T05:33:39.616Z,42.88
2018-02-07T05:34:42.843Z,42.53
2018-02-07T05:35:46.056Z,45.42
2018-02-07T05:36:49.284Z,42.88
2018-02-07T05:37:52.514Z,45.90
2018-02-07T05:38:55.738Z,42.55
2018-02-07T05:39:59.056Z,45.40
2018-02-07T05:41:02.333Z,42.17
2018-02-07T05:42:06.337Z,43.17
2018-02-07T05:43:10.336Z,44.15
2018-02-07T05:44:14.332Z,43.38
2018-02-07T05:45:17.551Z,42.00
2018-02-07T05:46:20.779Z,41.88
2018-02-07T05:47:24.784Z,43.83
2018-02-07T05:48:27.998Z,44.30
2018-02-07T05:49:31.229Z,46.40
2018-02-07T05:50:34.460Z,44.95
2018-02-07T05:51:37.686Z,45.10
2018-02-07T05:52:40.928Z,42.45
2018-02-07T05:53:44.167Z,41.90
2018-02-07T05:54:47.390Z,44.63
2018-02-07T05:55:50.608Z,46.67
2018-02-07T05:56:53.829Z,43.67
2018-02-07T05:57:57.053Z,45.60
2018-02-07T05:59:00.282Z,44.67
2018-02-07T06:00:03.505Z,45.12
2018-02-07T06:01:06.729Z,42.40
2018-02-07T06:02:09.968Z,43.75
2018-02-07T06:03:13.203Z,42.40
2018-02-07T06:04:16.431Z,44.20
2018-02-07T06:05:19.662Z,44.15
2018-02-07T06:06:22.937Z,46.92
2018-02-07T06:07:26.214Z,43.28
2018-02-07T06:08:30.185Z,44.38
2018-02-07T06:09:34.195Z,44.78
2018-02-07T06:10:37.424Z,41.65
2018-02-07T06:11:40.637Z,42.75
2018-02-07T06:12:44.639Z,45.58
2018-02-07T06:13:48.641Z,42.80
2018-02-07T06:14:52.646Z,45.45
2018-02-07T06:15:56.638Z,43.42
2018-02-07T06:17:00.617Z,45.78
2018-02-07T06:18:04.605Z,45.78
2018-02-07T06:19:07.844Z,42.13
2018-02-07T06:20:11.080Z,44.65
2018-02-07T06:21:14.303Z,44.08
2018-02-07T06:22:17.523Z,45.83
2018-02-07T06:23:20.748Z,41.75
2018-02-07T06:24:24.748Z,41.92
2018-02-07T06:25:28.749Z,44.03
2018-02-07T06:26:32.822Z,42.10
2018-02-07T06:27:36.080Z,41.03
2018-02-07T06:28:39.353Z,43.97
2018-02-07T06:29:42.593Z,42.50
2018-02-07T06:30:46.599Z,40.63
2018-02-07T06:31:50.598Z,40.90
2018-02-07T06:32:54.584Z,40.28
2018-02-07T06:33:57.816Z,41.53
2018-02-07T06:35:01.037Z,42.42
2018-02-07T06:36:04.272Z,41.70
2018-02-07T06:37:08.268Z,42.13
2018-02-07T06:38:11.507Z,40.78
2018-02-07T06:39:14.740Z,40.65
2018-02-07T06:40:17.975Z,43.30
2018-02-07T06:41:21.227Z,46.35
2018-02-07T06:42:24.510Z,42.83
2018-02-07T06:43:27.758Z,42.78
2018-02-07T06:44:31.801Z,42.03
2018-02-07T06:45:35.038Z,41.97
2018-02-07T06:46:39.037Z,41.60
2018-02-07T06:47:43.021Z,41.25
2018-02-07T06:48:46.250Z,37.85
2018-02-07T06:49:49.522Z,42.85
2018-02-07T06:50:52.805Z,41.88
2018-02-07T06:51:56.024Z,40.10
2018-02-07T06:52:59.259Z,39.58
2018-02-07T06:54:03.261Z,42.00
2018-02-07T06:55:07.269Z,40.33
2018-02-07T06:56:10.490Z,42.28
2018-02-07T06:57:13.716Z,42.55
2018-02-07T06:58:17.740Z,42.53
2018-02-07T06:59:21.758Z,41.22
2018-02-07T07:00:25.012Z,42.28
2018-02-07T07:01:28.243Z,41.22
2018-02-07T07:02:31.499Z,41.40
2018-02-07T07:03:34.720Z,38.97
2018-02-07T07:04:37.948Z,41.90
2018-02-07T07:05:42.079Z,40.80
2018-02-07T07:06:45.337Z,41.78
2018-02-07T07:07:48.560Z,43.55
2018-02-07T07:08:51.792Z,39.67
2018-02-07T07:09:55.821Z,40.12
2018-02-07T07:10:59.041Z,42.83
2018-02-07T07:12:02.270Z,41.60
2018-02-07T07:13:05.561Z,40.30
2018-02-07T07:14:08.803Z,42.25
2018-02-07T07:15:12.028Z,43.42
2018-02-07T07:16:15.267Z,43.92
2018-02-07T07:17:18.511Z,45.80
2018-02-07T07:18:21.783Z,43.55
2018-02-07T07:19:25.014Z,46.63
2018-02-07T07:20:28.250Z,45.53
2018-02-07T07:21:31.482Z,44.55
2018-02-07T07:22:34.726Z,46.13
2018-02-07T07:23:37.974Z,47.47
2018-02-07T07:24:41.235Z,44.60
2018-02-07T07:25:44.462Z,43.83
2018-02-07T07:26:47.700Z,45.55
2018-02-07T07:27:50.940Z,45.00
2018-02-07T07:28:54.201Z,46.97
2018-02-07T07:29:58.218Z,46.70
2018-02-07T07:31:01.436Z,45.97
2018-02-07T07:32:04.706Z,45.47
2018-02-07T07:33:07.944Z,47.70
2018-02-07T07:34:11.216Z,47.58
2018-02-07T07:35:14.464Z,44.72
2018-02-07T07:36:17.719Z,46.40
2018-02-07T07:37:20.953Z,46.05
2018-02-07T07:38:24.188Z,47.78
2018-02-07T07:39:27.482Z,47.15
2018-02-07T07:40:30.727Z,49.85
2018-02-07T07:41:34.751Z,46.80
2018-02-07T07:42:38.004Z,47.85
2018-02-07T07:43:45.987Z,45.53
2018-02-07T07:44:49.205Z,46.25
2018-02-07T07:45:52.441Z,48.83
2018-02-07T07:46:55.705Z,52.20
2018-02-07T07:47:58.920Z,48.58
2018-02-07T07:49:02.913Z,51.22
2018-02-07T07:50:06.227Z,45.00
2018-02-07T07:51:09.533Z,47.33
2018-02-07T07:52:12.954Z,49.00
2018-02-07T07:53:16.190Z,46.17
2018-02-07T07:54:19.420Z,50.72
2018-02-07T07:55:22.656Z,48.65
2018-02-07T07:56:25.920Z,47.33
2018-02-07T07:57:29.159Z,50.25
2018-02-07T07:58:32.362Z,48.80
2018-02-07T07:59:35.676Z,48.13
2018-02-07T08:00:39.667Z,45.30
2018-02-07T08:01:43.665Z,47.50
2018-02-07T08:02:47.650Z,48.03
2018-02-07T08:03:50.880Z,49.22
2018-02-07T08:04:54.113Z,48.42
2018-02-07T08:05:57.433Z,50.33
2018-02-07T08:07:00.772Z,47.85
2018-02-07T08:08:03.961Z,49.22
2018-02-07T08:09:07.173Z,50.12
2018-02-07T08:10:10.403Z,48.40
2018-02-07T08:11:13.628Z,49.05
2018-02-07T08:12:17.626Z,51.78
2018-02-07T08:13:21.605Z,48.28
2018-02-07T08:14:24.841Z,48.38
2018-02-07T08:15:28.100Z,48.15
2018-02-07T08:16:32.098Z,49.08
2018-02-07T08:17:36.088Z,45.55
2018-02-07T08:18:39.312Z,47.45
2018-02-07T08:19:42.538Z,49.20
2018-02-07T08:20:45.775Z,49.47
2018-02-07T08:21:49.015Z,48.65
2018-02-07T08:22:52.236Z,50.38
2018-02-07T08:23:55.446Z,48.08
2018-02-07T08:24:58.693Z,48.45
2018-02-07T08:26:01.909Z,49.10
2018-02-07T08:27:05.172Z,50.05
2018-02-07T08:28:08.600Z,48.15
2018-02-07T08:29:11.810Z,49.15
2018-02-07T08:30:15.793Z,51.25
2018-02-07T08:31:19.107Z,47.95
2018-02-07T08:32:23.092Z,48.72
2018-02-07T08:33:27.089Z,48.38
2018-02-07T08:34:31.078Z,47.13
2018-02-07T08:35:34.312Z,48.45
2018-02-07T08:36:37.533Z,48.87
2018-02-07T08:37:40.757Z,49.10
2018-02-07T08:38:43.983Z,48.97
2018-02-07T08:39:47.194Z,47.30
2018-02-07T08:40:50.443Z,47.17
2018-02-07T08:41:53.661Z,45.50
2018-02-07T08:42:57.659Z,48.53
2018-02-07T08:44:00.904Z,48.38
2018-02-07T08:45:04.129Z,48.78
2018-02-07T08:46:07.350Z,51.03
2018-02-07T08:47:10.572Z,47.22
2018-02-07T08:48:13.792Z,50.47
2018-02-07T08:49:17.824Z,49.10
2018-02-07T08:50:21.071Z,49.63
2018-02-07T08:51:25.056Z,49.80
2018-02-07T08:52:28.271Z,49.33
2018-02-07T08:53:31.541Z,46.15
2018-02-07T08:54:35.562Z,48.78
2018-02-07T08:55:38.781Z,48.85
2018-02-07T08:56:41.995Z,47.15
2018-02-07T08:57:45.985Z,47.05
2018-02-07T08:58:49.192Z,48.55
2018-02-07T08:59:53.182Z,50.05
2018-02-07T09:00:57.175Z,48.22
2018-02-07T09:02:00.401Z,46.85
2018-02-07T09:03:03.629Z,48.05
2018-02-07T09:04:06.848Z,50.78
2018-02-07T09:05:10.828Z,48.22
2018-02-07T09:06:14.824Z,49.83
2018-02-07T09:07:18.042Z,45.22
2018-02-07T09:08:21.256Z,45.70
2018-02-07T09:09:24.489Z,46.20
2018-02-07T09:10:28.478Z,45.80
2018-02-07T09:11:31.701Z,50.53
2018-02-07T09:12:34.934Z,48.80
2018-02-07T09:13:38.256Z,47.17
2018-02-07T09:14:41.537Z,50.33
2018-02-07T09:15:44.768Z,47.55
2018-02-07T09:16:47.996Z,50.75
2018-02-07T09:17:51.987Z,49.25
2018-02-07T09:18:55.967Z,49.13
2018-02-07T09:19:59.192Z,46.80
2018-02-07T09:21:02.619Z,47.53
2018-02-07T09:22:05.839Z,49.33
2018-02-07T09:23:09.894Z,48.67
2018-02-07T09:24:13.094Z,48.35
2018-02-07T09:25:16.315Z,47.10
2018-02-07T09:26:20.321Z,46.65
2018-02-07T09:27:23.559Z,47.92
2018-02-07T09:28:28.319Z,46.45
2018-02-07T09:29:32.308Z,48.20
2018-02-07T09:30:36.295Z,47.35
2018-02-07T09:31:39.508Z,48.30
2018-02-07T09:32:42.732Z,47.80
2018-02-07T09:33:45.971Z,48.92
2018-02-07T09:34:49.191Z,46.60
2018-02-07T09:35:52.432Z,48.05
2018-02-07T09:36:56.445Z,47.22
2018-02-07T09:37:59.671Z,47.03
2018-02-07T09:39:02.929Z,47.92
2018-02-07T09:40:06.144Z,49.90
2018-02-07T09:41:09.366Z,44.58
2018-02-07T09:42:12.702Z,48.05
2018-02-07T09:43:15.902Z,46.90
2018-02-07T09:44:19.120Z,48.72
2018-02-07T09:45:22.355Z,49.63
2018-02-07T09:46:25.593Z,51.22
2018-02-07T09:47:28.820Z,47.13
2018-02-07T09:48:32.062Z,46.42
2018-02-07T09:49:35.339Z,50.50
2018-02-07T09:50:38.574Z,48.87
2018-02-07T09:51:41.852Z,47.47
2018-02-07T09:52:45.790Z,47.72
2018-02-07T09:53:49.789Z,47.50
2018-02-07T09:54:53.773Z,43.33
2018-02-07T09:55:56.993Z,46.95
2018-02-07T09:57:00.214Z,49.05
2018-02-07T09:58:03.473Z,47.67
2018-02-07T09:59:06.697Z,47.30
2018-02-07T10:00:10.714Z,45.92
2018-02-07T10:01:13.972Z,47.45
2018-02-07T10:02:17.173Z,46.00
2018-02-07T10:03:21.166Z,46.35
2018-02-07T10:04:25.152Z,45.05
2018-02-07T10:05:28.384Z,45.30
2018-02-07T10:06:31.615Z,44.60
2018-02-07T10:07:34.868Z,44.05
2018-02-07T10:08:38.106Z,44.47
2018-02-07T10:09:42.100Z,46.10
2018-02-07T10:10:46.105Z,45.47
2018-02-07T10:11:50.089Z,45.28
2018-02-07T10:12:53.310Z,43.03
2018-02-07T10:13:56.541Z,44.53
2018-02-07T10:14:59.789Z,44.20
2018-02-07T10:16:03.017Z,45.88
2018-02-07T10:17:06.272Z,43.58
2018-02-07T10:18:09.505Z,43.95
2018-02-07T10:19:13.565Z,46.13
2018-02-07T10:20:16.746Z,45.67
2018-02-07T10:21:19.964Z,45.95
2018-02-07T10:22:24.081Z,43.65
2018-02-07T10:23:27.317Z,46.17
2018-02-07T10:24:30.523Z,45.92
2018-02-07T10:25:33.757Z,44.25
2018-02-07T10:26:37.007Z,45.08
2018-02-07T10:27:40.229Z,45.33
2018-02-07T10:28:43.454Z,46.47
2018-02-07T10:29:47.477Z,44.13
2018-02-07T10:30:51.485Z,47.95
2018-02-07T10:31:54.770Z,46.25
2018-02-07T10:32:57.998Z,44.78
2018-02-07T10:34:01.239Z,43.60
2018-02-07T10:35:04.525Z,45.67
2018-02-07T10:36:07.813Z,46.15
2018-02-07T10:37:11.059Z,49.00
2018-02-07T10:38:15.038Z,47.70
2018-02-07T10:39:18.281Z,44.03
2018-02-07T10:40:21.634Z,46.10
2018-02-07T10:41:25.649Z,45.38
2018-02-07T10:42:28.871Z,47.22
2018-02-07T10:43:32.131Z,46.50
2018-02-07T10:44:35.412Z,46.47
2018-02-07T10:45:38.707Z,43.50
2018-02-07T10:46:41.988Z,58.92
2018-02-07T10:47:45.226Z,55.80
2018-02-07T10:48:48.424Z,49.35
2018-02-07T10:49:52.427Z,46.58
2018-02-07T10:50:56.459Z,46.53
2018-02-07T10:51:59.758Z,45.80
2018-02-07T10:53:03.012Z,45.03
2018-02-07T10:54:06.249Z,47.97
2018-02-07T10:55:09.478Z,46.75
2018-02-07T10:56:12.734Z,46.00
2018-02-07T10:57:16.720Z,45.80
2018-02-07T10:58:19.965Z,48.08
2018-02-07T10:59:23.216Z,43.60
2018-02-07T11:00:27.208Z,45.90
2018-02-07T11:01:31.230Z,42.85
2018-02-07T11:02:34.441Z,42.67
2018-02-07T11:03:37.681Z,46.15
2018-02-07T11:04:41.690Z,47.88
2018-02-07T11:05:44.908Z,43.65
2018-02-07T11:06:48.137Z,46.15
2018-02-07T11:07:52.117Z,44.45
2018-02-07T11:08:55.353Z,45.85
2018-02-07T11:09:58.873Z,46.85
2018-02-07T11:11:02.179Z,43.55
2018-02-07T11:12:05.388Z,42.17
2018-02-07T11:13:08.628Z,43.92
2018-02-07T11:14:11.863Z,49.42
2018-02-07T11:15:15.089Z,42.20
2018-02-07T11:16:18.334Z,46.35
2018-02-07T11:17:21.556Z,44.53
2018-02-07T11:18:24.809Z,43.40
2018-02-07T11:19:28.021Z,43.00
2018-02-07T11:20:31.248Z,44.50
2018-02-07T11:21:34.463Z,43.72
2018-02-07T11:22:37.697Z,49.80
2018-02-07T11:23:41.676Z,43.95
2018-02-07T11:24:44.900Z,44.60
2018-02-07T11:25:48.124Z,42.75
2018-02-07T11:26:51.799Z,42.92
2018-02-07T11:27:55.029Z,45.83
2018-02-07T11:28:58.272Z,44.63
2018-02-07T11:30:01.465Z,45.22
2018-02-07T11:31:04.723Z,44.08
2018-02-07T11:32:09.085Z,47.03
2018-02-07T11:33:12.303Z,45.20
2018-02-07T11:34:15.511Z,41.42
2018-02-07T11:35:18.761Z,44.20
2018-02-07T11:36:22.839Z,45.90
2018-02-07T11:37:26.060Z,43.03
2018-02-07T11:38:29.299Z,45.12
2018-02-07T11:39:32.516Z,43.85
2018-02-07T11:40:35.800Z,43.42
2018-02-07T11:41:39.033Z,46.78
2018-02-07T11:42:42.328Z,47.42
2018-02-07T11:43:45.534Z,44.05
2018-02-07T11:44:49.552Z,48.13
2018-02-07T11:45:52.770Z,44.97
2018-02-07T11:46:56.008Z,45.90
2018-02-07T11:47:59.994Z,43.53
2018-02-07T11:49:03.988Z,43.15
2018-02-07T11:50:07.969Z,45.53
2018-02-07T11:51:12.091Z,43.40
2018-02-07T11:52:15.316Z,43.67
2018-02-07T11:53:18.584Z,48.13
2018-02-07T11:54:21.815Z,48.03
2018-02-07T11:55:25.110Z,45.28
2018-02-07T11:56:28.362Z,45.00
2018-02-07T11:57:31.583Z,45.03
2018-02-07T11:58:35.589Z,46.97
2018-02-07T11:59:38.896Z,46.90
2018-02-07T12:00:42.892Z,47.20
2018-02-07T12:01:46.879Z,48.65
2018-02-07T12:02:50.119Z,48.35
2018-02-07T12:03:53.352Z,48.38
2018-02-07T12:04:56.584Z,48.20
2018-02-07T12:05:59.807Z,46.55
2018-02-07T12:07:03.797Z,47.70
2018-02-07T12:08:07.822Z,46.15
2018-02-07T12:09:11.040Z,46.22
2018-02-07T12:10:15.043Z,45.83
2018-02-07T12:11:19.097Z,47.92
2018-02-07T12:12:22.339Z,47.62
2018-02-07T12:13:26.327Z,50.38
2018-02-07T12:14:30.321Z,57.22
2018-02-07T12:15:34.321Z,64.37
2018-02-07T12:16:37.538Z,55.85
2018-02-07T12:17:40.770Z,54.17
2018-02-07T12:18:44.005Z,53.38
2018-02-07T12:19:47.229Z,50.95
2018-02-07T12:20:50.449Z,45.78
2018-02-07T12:21:54.493Z,46.20
2018-02-07T12:22:57.652Z,47.08
2018-02-07T12:24:00.889Z,45.65
2018-02-07T12:25:04.128Z,43.85
2018-02-07T12:26:07.371Z,45.33
2018-02-07T12:27:10.585Z,43.92
2018-02-07T12:28:13.812Z,45.58
2018-02-07T12:29:17.068Z,46.35
2018-02-07T12:30:20.541Z,49.47
2018-02-07T12:31:23.784Z,46.30
2018-02-07T12:32:27.016Z,46.30
2018-02-07T12:33:30.250Z,47.80
2018-02-07T12:34:33.472Z,46.22
2018-02-07T12:35:36.698Z,45.17
2018-02-07T12:36:39.938Z,42.45
2018-02-07T12:37:43.155Z,44.58
2018-02-07T12:38:46.403Z,46.78
2018-02-07T12:39:49.643Z,46.28
2018-02-07T12:40:52.870Z,43.97
2018-02-07T12:41:56.107Z,47.60
2018-02-07T12:42:59.333Z,46.47
2018-02-07T12:44:02.606Z,46.33
2018-02-07T12:45:05.897Z,44.25
2018-02-07T12:46:09.088Z,44.33
2018-02-07T12:47:12.326Z,46.88
2018-02-07T12:48:15.572Z,45.95
2018-02-07T12:49:19.609Z,46.80
2018-02-07T12:50:22.850Z,46.70
2018-02-07T12:51:26.838Z,45.95
2018-02-07T12:52:30.056Z,44.60
2018-02-07T12:53:33.272Z,47.62
2018-02-07T12:54:36.494Z,44.88
2018-02-07T12:55:39.714Z,46.00
2018-02-07T12:56:42.945Z,47.38
2018-02-07T12:57:46.181Z,44.40
2018-02-07T12:58:49.440Z,50.20
2018-02-07T12:59:52.679Z,48.55
2018-02-07T13:00:55.903Z,46.20
2018-02-07T13:01:59.938Z,47.08
2018-02-07T13:03:03.156Z,46.70
2018-02-07T13:04:06.385Z,45.05
2018-02-07T13:05:09.621Z,47.00
2018-02-07T13:06:12.840Z,48.13
2018-02-07T13:07:16.146Z,46.72
2018-02-07T13:08:19.397Z,47.08
2018-02-07T13:09:23.377Z,48.40
2018-02-07T13:10:26.627Z,50.97
2018-02-07T13:11:29.843Z,49.55
2018-02-07T13:12:33.119Z,48.38
2018-02-07T13:13:36.347Z,46.75
2018-02-07T13:14:39.608Z,46.17
2018-02-07T13:15:43.606Z,47.05
2018-02-07T13:16:47.603Z,47.15
2018-02-07T13:17:50.811Z,49.97
2018-02-07T13:18:54.092Z,46.15
2018-02-07T13:19:57.319Z,48.67
2018-02-07T13:21:00.559Z,50.05
2018-02-07T13:22:03.860Z,46.10
2018-02-07T13:24:16.724Z,48.33
2018-02-07T13:25:20.770Z,47.62
2018-02-07T13:26:24.054Z,46.35
2018-02-07T13:27:27.321Z,47.15
2018-02-07T13:28:30.612Z,49.30
2018-02-07T13:29:33.855Z,46.05
2018-02-07T13:30:37.085Z,46.28
2018-02-07T13:31:40.309Z,46.97
2018-02-07T13:32:43.544Z,47.15
2018-02-07T13:33:46.878Z,46.10
2018-02-07T13:34:50.079Z,45.88
2018-02-07T13:35:53.292Z,46.83
2018-02-07T13:36:56.516Z,47.25
2018-02-07T13:37:59.761Z,46.40